createdAt,value
2019-03-09T00:00:21.696Z,0.00
2019-03-09T00:01:21.639Z,0.00
2019-03-09T00:02:21.706Z,0.00
2019-03-09T00:03:21.631Z,0.00
2019-03-09T00:04:21.640Z,0.00
2019-03-09T00:05:21.589Z,0.00
2019-03-09T00:06:21.634Z,0.00
2019-03-09T00:07:21.559Z,0.00
2019-03-09T00:08:21.642Z,0.00
2019-03-09T00:09:21.575Z,0.00
2019-03-09T00:10:21.551Z,0.00
2019-03-09T00:11:21.524Z,0.00
2019-03-09T00:12:21.570Z,0.00
2019-03-09T00:13:21.493Z,0.00
2019-03-09T00:14:21.578Z,0.00
2019-03-09T00:15:21.485Z,0.00
2019-03-09T00:16:21.489Z,0.00
2019-03-09T00:17:21.453Z,0.00
2019-03-09T00:18:21.512Z,0.00
2019-03-09T00:19:21.427Z,0.00
2019-03-09T00:20:21.551Z,0.00
2019-03-09T00:21:21.407Z,0.00
2019-03-09T00:22:21.432Z,0.00
2019-03-09T00:23:21.392Z,0.00
2019-03-09T00:24:21.443Z,0.00
2019-03-09T00:25:21.374Z,0.00
2019-03-09T00:26:21.472Z,0.00
2019-03-09T00:27:29.504Z,0.00
2019-03-09T00:28:22.333Z,0.00
2019-03-09T00:29:21.373Z,0.00
2019-03-09T00:30:21.322Z,0.00
2019-03-09T00:31:21.415Z,0.00
2019-03-09T00:32:21.292Z,0.00
2019-03-09T00:33:21.320Z,0.00
2019-03-09T00:34:21.273Z,0.00
2019-03-09T00:35:21.342Z,0.00
2019-03-09T00:36:21.245Z,0.00
2019-03-09T00:37:22.252Z,0.00
2019-03-09T00:38:21.223Z,0.00
2019-03-09T00:39:21.243Z,0.00
2019-03-09T00:40:21.228Z,0.00
2019-03-09T00:41:21.255Z,0.00
2019-03-09T00:42:21.179Z,0.00
2019-03-09T00:43:21.271Z,0.00
2019-03-09T00:44:21.157Z,0.00
2019-03-09T00:45:21.211Z,0.00
2019-03-09T00:46:21.137Z,0.00
2019-03-09T00:47:21.196Z,0.00
2019-03-09T00:48:21.115Z,0.00
2019-03-09T00:49:21.209Z,0.00
2019-03-09T00:50:21.106Z,0.00
2019-03-09T00:51:21.119Z,0.00
2019-03-09T00:52:21.076Z,0.00
2019-03-09T00:53:21.134Z,0.00
2019-03-09T00:54:21.049Z,0.00
2019-03-09T00:55:21.071Z,0.00
2019-03-09T00:56:21.031Z,0.00
2019-03-09T00:57:21.060Z,0.00
2019-03-09T00:58:21.011Z,0.00
2019-03-09T00:59:21.069Z,0.00
2019-03-09T01:00:21.000Z,0.00
2019-03-09T01:01:21.081Z,0.00
2019-03-09T01:02:20.968Z,0.00
2019-03-09T01:03:20.995Z,0.00
2019-03-09T01:04:20.954Z,0.00
2019-03-09T01:05:21.038Z,0.00
2019-03-09T01:06:20.925Z,0.00
2019-03-09T01:07:21.026Z,0.00
2019-03-09T01:08:20.903Z,0.00
2019-03-09T01:09:20.933Z,0.00
2019-03-09T01:10:20.877Z,0.00
2019-03-09T01:11:20.978Z,0.00
2019-03-09T01:12:20.857Z,0.00
2019-03-09T01:13:20.857Z,0.00
2019-03-09T01:14:20.838Z,0.00
2019-03-09T01:15:20.870Z,0.00
2019-03-09T01:16:20.825Z,0.00
2019-03-09T01:17:21.910Z,0.00
2019-03-09T01:18:20.792Z,0.00
2019-03-09T01:19:20.795Z,0.00
2019-03-09T01:20:20.772Z,0.00
2019-03-09T01:21:27.800Z,0.00
2019-03-09T01:22:20.748Z,0.00
2019-03-09T01:23:22.794Z,0.00
2019-03-09T01:24:20.730Z,0.00
2019-03-09T01:25:20.734Z,0.00
2019-03-09T01:26:20.717Z,0.00
2019-03-09T01:27:20.748Z,0.00
2019-03-09T01:28:20.684Z,0.00
2019-03-09T01:29:20.762Z,0.00
2019-03-09T01:30:20.663Z,0.00
2019-03-09T01:31:20.705Z,0.00
2019-03-09T01:32:20.646Z,0.00
2019-03-09T01:33:20.688Z,0.00
2019-03-09T01:34:20.622Z,0.00
2019-03-09T01:35:20.701Z,0.00
2019-03-09T01:36:20.608Z,0.00
2019-03-09T01:37:20.620Z,0.00
2019-03-09T01:38:20.580Z,0.00
2019-03-09T01:39:20.629Z,0.00
2019-03-09T01:40:20.555Z,0.00
2019-03-09T01:41:20.566Z,0.00
2019-03-09T01:42:20.538Z,0.00
2019-03-09T01:43:20.553Z,0.00
2019-03-09T01:44:20.514Z,0.00
2019-03-09T01:45:20.569Z,0.00
2019-03-09T01:46:20.499Z,0.00
2019-03-09T01:47:20.587Z,0.00
2019-03-09T01:48:20.468Z,0.00
2019-03-09T01:49:20.489Z,0.00
2019-03-09T01:50:20.444Z,0.00
2019-03-09T01:51:20.544Z,0.00
2019-03-09T01:52:20.423Z,0.00
2019-03-09T01:53:20.518Z,0.00
2019-03-09T01:54:20.401Z,0.00
2019-03-09T01:55:20.429Z,0.00
2019-03-09T01:56:20.393Z,0.00
2019-03-09T01:57:20.443Z,0.00
2019-03-09T01:58:20.358Z,0.00
2019-03-09T01:59:20.457Z,0.00
2019-03-09T02:00:20.335Z,0.00
2019-03-09T02:01:20.779Z,0.00
2019-03-09T02:02:20.316Z,0.00
2019-03-09T02:03:21.414Z,0.00
2019-03-09T02:04:20.294Z,0.00
2019-03-09T02:05:28.280Z,0.00
2019-03-09T02:06:20.301Z,0.00
2019-03-09T02:07:27.781Z,0.00
2019-03-09T02:08:20.251Z,0.00
2019-03-09T02:09:22.266Z,0.00
2019-03-09T02:10:20.235Z,0.00
2019-03-09T02:11:21.256Z,0.00
2019-03-09T02:12:20.218Z,0.00
2019-03-09T02:13:20.244Z,0.00
2019-03-09T02:14:20.187Z,0.00
2019-03-09T02:15:20.258Z,0.00
2019-03-09T02:16:20.171Z,0.00
2019-03-09T02:17:20.201Z,0.00
2019-03-09T02:18:20.146Z,0.00
2019-03-09T02:19:20.186Z,0.00
2019-03-09T02:20:20.122Z,0.00
2019-03-09T02:21:20.199Z,0.00
2019-03-09T02:22:20.110Z,0.00
2019-03-09T02:23:20.112Z,0.00
2019-03-09T02:24:20.080Z,0.00
2019-03-09T02:25:20.151Z,0.00
2019-03-09T02:26:20.084Z,0.00
2019-03-09T02:27:20.165Z,0.00
2019-03-09T02:28:20.035Z,0.00
2019-03-09T02:29:20.057Z,0.00
2019-03-09T02:30:20.016Z,0.00
2019-03-09T02:31:20.084Z,0.00
2019-03-09T02:32:20.012Z,0.00
2019-03-09T02:33:20.105Z,0.00
2019-03-09T02:34:19.978Z,0.00
2019-03-09T02:35:20.001Z,0.00
2019-03-09T02:36:19.957Z,0.00
2019-03-09T02:37:20.029Z,0.00
2019-03-09T02:38:19.926Z,0.00
2019-03-09T02:39:20.015Z,0.00
2019-03-09T02:40:19.914Z,0.00
2019-03-09T02:41:19.953Z,0.00
2019-03-09T02:42:19.921Z,0.00
2019-03-09T02:43:19.941Z,0.00
2019-03-09T02:44:19.863Z,0.00
2019-03-09T02:45:19.953Z,0.00
2019-03-09T02:46:19.878Z,0.00
2019-03-09T02:47:19.897Z,0.00
2019-03-09T02:48:19.824Z,0.00
2019-03-09T02:49:20.901Z,0.00
2019-03-09T02:50:19.798Z,0.00
2019-03-09T02:51:27.784Z,0.00
2019-03-09T02:52:19.789Z,0.00
2019-03-09T02:53:27.797Z,0.00
2019-03-09T02:54:19.757Z,0.00
2019-03-09T02:55:21.766Z,0.00
2019-03-09T02:56:19.732Z,0.00
2019-03-09T02:57:19.758Z,0.00
2019-03-09T02:58:19.718Z,0.00
2019-03-09T02:59:19.746Z,0.00
2019-03-09T03:00:19.705Z,0.00
2019-03-09T03:01:19.762Z,0.00
2019-03-09T03:02:19.684Z,0.00
2019-03-09T03:03:20.662Z,0.00
2019-03-09T03:04:19.663Z,0.00
2019-03-09T03:05:19.715Z,0.00
2019-03-09T03:06:19.623Z,0.00
2019-03-09T03:07:19.728Z,0.00
2019-03-09T03:08:19.603Z,0.00
2019-03-09T03:09:19.607Z,0.00
2019-03-09T03:10:19.586Z,0.00
2019-03-09T03:11:19.621Z,0.00
2019-03-09T03:12:19.597Z,0.00
2019-03-09T03:13:19.634Z,0.00
2019-03-09T03:14:19.537Z,0.00
2019-03-09T03:15:19.546Z,0.00
2019-03-09T03:16:19.522Z,0.00
2019-03-09T03:17:19.558Z,0.00
2019-03-09T03:18:19.504Z,0.00
2019-03-09T03:19:19.573Z,0.00
2019-03-09T03:20:19.473Z,0.00
2019-03-09T03:21:19.484Z,0.00
2019-03-09T03:22:19.454Z,0.00
2019-03-09T03:23:19.525Z,0.00
2019-03-09T03:24:19.428Z,0.00
2019-03-09T03:25:19.519Z,0.00
2019-03-09T03:26:19.407Z,0.00
2019-03-09T03:27:19.422Z,0.00
2019-03-09T03:28:19.407Z,0.00
2019-03-09T03:29:19.437Z,0.00
2019-03-09T03:30:19.365Z,0.00
2019-03-09T03:31:19.449Z,0.00
2019-03-09T03:32:19.359Z,0.00
2019-03-09T03:33:19.404Z,0.00
2019-03-09T03:34:19.327Z,0.00
2019-03-09T03:35:19.375Z,0.00
2019-03-09T03:36:19.299Z,0.00
2019-03-09T03:37:27.284Z,0.00
2019-03-09T03:38:19.290Z,0.00
2019-03-09T03:39:27.288Z,0.00
2019-03-09T03:40:19.262Z,0.00
2019-03-09T03:41:26.789Z,0.00
2019-03-09T03:42:19.240Z,0.00
2019-03-09T03:43:19.253Z,0.00
2019-03-09T03:44:19.214Z,0.00
2019-03-09T03:45:19.237Z,0.00
2019-03-09T03:46:19.196Z,0.00
2019-03-09T03:47:19.253Z,0.00
2019-03-09T03:48:19.181Z,0.00
2019-03-09T03:49:19.286Z,0.00
2019-03-09T03:50:19.155Z,0.00
2019-03-09T03:51:19.177Z,0.00
2019-03-09T03:52:19.131Z,0.00
2019-03-09T03:53:19.226Z,0.00
2019-03-09T03:54:19.103Z,0.00
2019-03-09T03:55:19.207Z,0.00
2019-03-09T03:56:19.084Z,0.00
2019-03-09T03:57:19.119Z,0.00
2019-03-09T03:58:19.088Z,0.00
2019-03-09T03:59:19.134Z,0.00
2019-03-09T04:00:19.040Z,0.00
2019-03-09T04:01:19.158Z,0.00
2019-03-09T04:02:19.021Z,0.00
2019-03-09T04:03:19.077Z,0.00
2019-03-09T04:04:19.017Z,0.00
2019-03-09T04:05:19.067Z,0.00
2019-03-09T04:06:18.973Z,0.00
2019-03-09T04:07:18.985Z,0.00
2019-03-09T04:08:18.954Z,0.00
2019-03-09T04:09:19.021Z,0.00
2019-03-09T04:10:18.931Z,0.00
2019-03-09T04:11:19.014Z,0.00
2019-03-09T04:12:18.911Z,0.00
2019-03-09T04:13:18.926Z,0.00
2019-03-09T04:14:18.903Z,0.00
2019-03-09T04:15:18.935Z,0.00
2019-03-09T04:16:18.867Z,0.00
2019-03-09T04:17:18.950Z,0.00
2019-03-09T04:18:18.860Z,0.00
2019-03-09T04:19:18.887Z,0.00
2019-03-09T04:20:18.829Z,0.00
2019-03-09T04:21:18.871Z,0.00
2019-03-09T04:22:18.801Z,0.00
2019-03-09T04:23:27.802Z,0.00
2019-03-09T04:24:18.791Z,0.00
2019-03-09T04:25:23.817Z,0.00
2019-03-09T04:26:18.760Z,0.00
2019-03-09T04:27:26.291Z,0.00
2019-03-09T04:28:19.135Z,0.00
2019-03-09T04:29:18.751Z,0.00
2019-03-09T04:30:18.713Z,0.00
2019-03-09T04:31:18.738Z,0.00
2019-03-09T04:32:18.695Z,0.00
2019-03-09T04:33:18.748Z,0.00
2019-03-09T04:34:18.681Z,0.00
2019-03-09T04:35:18.768Z,0.00
2019-03-09T04:36:18.647Z,0.00
2019-03-09T04:37:18.673Z,0.00
2019-03-09T04:38:18.632Z,0.00
2019-03-09T04:39:18.716Z,0.00
2019-03-09T04:40:18.606Z,0.00
2019-03-09T04:41:18.703Z,0.00
2019-03-09T04:42:18.582Z,0.00
2019-03-09T04:43:18.611Z,0.00
2019-03-09T04:44:18.584Z,0.00
2019-03-09T04:45:18.628Z,0.00
2019-03-09T04:46:18.537Z,0.00
2019-03-09T04:47:18.641Z,0.00
2019-03-09T04:48:18.514Z,0.00
2019-03-09T04:49:18.553Z,0.00
2019-03-09T04:50:18.525Z,0.00
2019-03-09T04:51:18.564Z,0.00
2019-03-09T04:52:18.473Z,0.00
2019-03-09T04:53:18.480Z,0.00
2019-03-09T04:54:18.452Z,0.00
2019-03-09T04:55:18.524Z,0.00
2019-03-09T04:56:18.429Z,0.00
2019-03-09T04:57:18.505Z,0.00
2019-03-09T04:58:18.408Z,0.00
2019-03-09T04:59:18.415Z,0.00
2019-03-09T05:00:18.402Z,0.00
2019-03-09T05:01:18.427Z,0.00
2019-03-09T05:02:18.367Z,0.00
2019-03-09T05:03:18.442Z,0.00
2019-03-09T05:04:18.341Z,0.00
2019-03-09T05:05:18.386Z,0.00
2019-03-09T05:06:18.322Z,0.00
2019-03-09T05:07:18.381Z,0.00
2019-03-09T05:08:18.304Z,0.00
2019-03-09T05:09:27.291Z,0.00
2019-03-09T05:10:18.286Z,0.00
2019-03-09T05:11:18.294Z,0.00
2019-03-09T05:12:18.254Z,0.00
2019-03-09T05:13:25.797Z,0.00
2019-03-09T05:14:18.243Z,0.00
2019-03-09T05:15:18.245Z,0.00
2019-03-09T05:16:18.221Z,0.00
2019-03-09T05:17:18.239Z,0.00
2019-03-09T05:18:18.194Z,0.00
2019-03-09T05:19:18.246Z,0.00
2019-03-09T05:20:18.176Z,0.00
2019-03-09T05:21:18.266Z,0.00
2019-03-09T05:22:18.149Z,0.00
2019-03-09T05:23:18.184Z,0.00
2019-03-09T05:24:18.126Z,0.00
2019-03-09T05:25:18.211Z,4.00
2019-03-09T05:26:18.119Z,4.00
2019-03-09T05:27:18.196Z,0.00
2019-03-09T05:28:18.078Z,4.00
2019-03-09T05:29:18.108Z,4.00
2019-03-09T05:30:18.098Z,4.00
2019-03-09T05:31:18.127Z,4.00
2019-03-09T05:32:18.035Z,8.00
2019-03-09T05:33:18.136Z,4.00
2019-03-09T05:34:18.040Z,8.00
2019-03-09T05:35:18.058Z,12.00
2019-03-09T05:36:18.005Z,12.00
2019-03-09T05:37:18.065Z,16.00
2019-03-09T05:38:18.019Z,20.00
2019-03-09T05:39:17.972Z,24.00
2019-03-09T05:40:17.948Z,32.00
2019-03-09T05:41:18.024Z,36.00
2019-03-09T05:42:17.936Z,44.00
2019-03-09T05:43:17.998Z,48.00
2019-03-09T05:44:17.928Z,56.00
2019-03-09T05:45:17.920Z,68.00
2019-03-09T05:46:17.902Z,80.00
2019-03-09T05:47:17.924Z,92.00
2019-03-09T05:48:17.914Z,104.00
2019-03-09T05:49:17.938Z,116.00
2019-03-09T05:50:17.863Z,132.00
2019-03-09T05:51:17.879Z,148.00
2019-03-09T05:52:17.816Z,172.00
2019-03-09T05:53:19.940Z,188.00
2019-03-09T05:54:17.795Z,212.00
2019-03-09T05:55:17.881Z,240.00
2019-03-09T05:56:17.788Z,268.00
2019-03-09T05:57:17.797Z,292.00
2019-03-09T05:58:17.780Z,324.00
2019-03-09T05:59:25.281Z,360.00
2019-03-09T06:00:17.740Z,392.00
2019-03-09T06:01:17.748Z,424.00
2019-03-09T06:02:17.732Z,464.00
2019-03-09T06:03:17.736Z,504.00
2019-03-09T06:04:17.696Z,548.00
2019-03-09T06:05:17.741Z,596.00
2019-03-09T06:06:17.709Z,644.00
2019-03-09T06:07:17.760Z,692.00
2019-03-09T06:08:17.675Z,740.00
2019-03-09T06:09:17.672Z,788.00
2019-03-09T06:10:17.633Z,840.00
2019-03-09T06:11:17.719Z,892.00
2019-03-09T06:12:17.607Z,944.00
2019-03-09T06:13:17.746Z,1000.00
2019-03-09T06:14:17.593Z,1044.00
2019-03-09T06:15:17.611Z,1096.00
2019-03-09T06:16:17.573Z,1152.00
2019-03-09T06:17:17.625Z,1184.00
2019-03-09T06:18:17.546Z,1212.00
2019-03-09T06:19:17.654Z,1224.00
2019-03-09T06:20:17.522Z,1256.00
2019-03-09T06:21:17.582Z,1320.00
2019-03-09T06:22:17.499Z,1372.00
2019-03-09T06:23:17.562Z,1364.00
2019-03-09T06:24:17.487Z,1420.00
2019-03-09T06:25:17.483Z,1496.00
2019-03-09T06:26:17.489Z,1564.00
2019-03-09T06:27:17.499Z,1656.00
2019-03-09T06:28:17.433Z,1788.00
2019-03-09T06:29:17.501Z,2080.00
2019-03-09T06:30:17.400Z,2284.00
2019-03-09T06:31:17.420Z,2460.00
2019-03-09T06:32:17.403Z,2580.00
2019-03-09T06:33:17.427Z,2680.00
2019-03-09T06:34:17.379Z,2596.00
2019-03-09T06:35:17.447Z,2816.00
2019-03-09T06:36:17.339Z,3064.00
2019-03-09T06:37:17.390Z,3080.00
2019-03-09T06:38:17.329Z,3048.00
2019-03-09T06:39:19.417Z,3136.00
2019-03-09T06:40:17.319Z,3136.00
2019-03-09T06:41:26.290Z,3608.00
2019-03-09T06:42:17.285Z,3708.00
2019-03-09T06:43:17.289Z,3844.00
2019-03-09T06:44:17.267Z,3868.00
2019-03-09T06:45:33.810Z,3912.00
2019-03-09T06:46:17.249Z,3920.00
2019-03-09T06:47:18.286Z,3976.00
2019-03-09T06:48:17.204Z,4004.00
2019-03-09T06:49:17.223Z,4000.00
2019-03-09T06:50:17.217Z,3624.00
2019-03-09T06:51:17.242Z,3624.00
2019-03-09T06:52:17.185Z,3416.00
2019-03-09T06:53:17.259Z,3484.00
2019-03-09T06:54:17.137Z,3612.00
2019-03-09T06:55:17.180Z,3452.00
2019-03-09T06:56:17.114Z,3176.00
2019-03-09T06:57:29.800Z,3236.00
2019-03-09T06:58:17.094Z,3288.00
2019-03-09T06:59:17.196Z,3420.00
2019-03-09T07:00:17.111Z,3776.00
2019-03-09T07:01:17.105Z,3512.00
2019-03-09T07:02:17.064Z,3512.00
2019-03-09T07:03:17.123Z,3520.00
2019-03-09T07:04:17.032Z,3560.00
2019-03-09T07:05:17.134Z,3564.00
2019-03-09T07:06:17.006Z,3620.00
2019-03-09T07:07:17.082Z,3752.00
2019-03-09T07:08:17.007Z,3960.00
2019-03-09T07:09:17.056Z,4348.00
2019-03-09T07:10:16.963Z,4208.00
2019-03-09T07:11:16.968Z,3820.00
2019-03-09T07:12:16.957Z,4168.00
2019-03-09T07:13:16.979Z,4252.00
2019-03-09T07:14:16.925Z,4656.00
2019-03-09T07:15:16.993Z,5052.00
2019-03-09T07:16:16.902Z,5396.00
2019-03-09T07:17:16.934Z,5440.00
2019-03-09T07:18:16.881Z,5272.00
2019-03-09T07:19:16.918Z,6464.00
2019-03-09T07:20:16.861Z,6556.00
2019-03-09T07:21:16.932Z,5796.00
2019-03-09T07:22:16.845Z,6224.00
2019-03-09T07:23:16.842Z,7060.00
2019-03-09T07:24:16.813Z,6452.00
2019-03-09T07:25:18.905Z,5372.00
2019-03-09T07:26:16.832Z,5408.00
2019-03-09T07:27:17.880Z,5220.00
2019-03-09T07:28:16.835Z,5868.00
2019-03-09T07:29:16.781Z,6192.00
2019-03-09T07:30:16.743Z,6056.00
2019-03-09T07:31:17.840Z,6340.00
2019-03-09T07:32:16.771Z,6748.00
2019-03-09T07:33:17.747Z,7400.00
2019-03-09T07:34:16.700Z,7828.00
2019-03-09T07:35:16.720Z,7288.00
2019-03-09T07:36:16.678Z,7372.00
2019-03-09T07:37:16.735Z,6536.00
2019-03-09T07:38:16.664Z,5512.00
2019-03-09T07:39:16.750Z,6172.00
2019-03-09T07:40:16.631Z,6076.00
2019-03-09T07:41:16.664Z,5548.00
2019-03-09T07:42:16.609Z,6112.00
2019-03-09T07:43:16.705Z,5696.00
2019-03-09T07:44:16.586Z,5648.00
2019-03-09T07:45:16.687Z,5604.00
2019-03-09T07:46:16.565Z,6284.00
2019-03-09T07:47:16.600Z,7064.00
2019-03-09T07:48:16.568Z,6956.00
2019-03-09T07:49:16.641Z,5856.00
2019-03-09T07:50:16.520Z,7060.00
2019-03-09T07:51:16.563Z,10528.00
2019-03-09T07:52:16.497Z,6364.00
2019-03-09T07:53:16.572Z,6852.00
2019-03-09T07:54:16.483Z,5628.00
2019-03-09T07:55:16.550Z,5388.00
2019-03-09T07:56:16.453Z,4032.00
2019-03-09T07:57:16.462Z,4096.00
2019-03-09T07:58:16.451Z,3948.00
2019-03-09T07:59:16.474Z,4372.00
2019-03-09T08:00:16.411Z,5412.00
2019-03-09T08:01:16.487Z,6564.00
2019-03-09T08:02:16.384Z,6084.00
2019-03-09T08:03:16.433Z,5244.00
2019-03-09T08:04:16.362Z,8152.00
2019-03-09T08:05:16.413Z,7964.00
2019-03-09T08:06:16.341Z,4784.00
2019-03-09T08:07:16.428Z,5692.00
2019-03-09T08:08:16.331Z,5396.00
2019-03-09T08:09:18.388Z,9344.00
2019-03-09T08:10:16.294Z,4328.00
2019-03-09T08:11:18.400Z,4532.00
2019-03-09T08:12:16.272Z,5336.00
2019-03-09T08:13:16.295Z,4480.00
2019-03-09T08:14:16.250Z,5812.00
2019-03-09T08:15:16.282Z,7112.00
2019-03-09T08:16:16.275Z,6484.00
2019-03-09T08:17:16.292Z,6640.00
2019-03-09T08:18:16.253Z,8272.00
2019-03-09T08:19:17.225Z,10116.00
2019-03-09T08:20:16.245Z,11908.00
2019-03-09T08:21:16.248Z,17184.00
2019-03-09T08:22:16.162Z,17792.00
2019-03-09T08:23:16.242Z,19968.00
2019-03-09T08:24:16.156Z,17984.00
2019-03-09T08:25:16.141Z,14432.00
2019-03-09T08:26:16.137Z,18528.00
2019-03-09T08:27:16.155Z,14944.00
2019-03-09T08:28:16.602Z,14160.00
2019-03-09T08:29:16.207Z,11816.00
2019-03-09T08:30:16.082Z,10396.00
2019-03-09T08:31:16.079Z,10664.00
2019-03-09T08:32:16.069Z,9396.00
2019-03-09T08:33:16.097Z,11508.00
2019-03-09T08:34:16.059Z,13888.00
2019-03-09T08:35:16.107Z,13616.00
2019-03-09T08:36:16.020Z,14232.00
2019-03-09T08:37:16.021Z,11864.00
2019-03-09T08:38:15.991Z,9276.00
2019-03-09T08:39:16.066Z,7576.00
2019-03-09T08:40:15.988Z,7436.00
2019-03-09T08:41:16.045Z,8252.00
2019-03-09T08:42:15.956Z,8212.00
2019-03-09T08:43:15.957Z,6864.00
2019-03-09T08:44:15.939Z,5600.00
2019-03-09T08:45:15.970Z,4952.00
2019-03-09T08:46:15.900Z,5860.00
2019-03-09T08:47:15.987Z,7068.00
2019-03-09T08:48:15.879Z,9216.00
2019-03-09T08:49:15.930Z,9932.00
2019-03-09T08:50:15.887Z,10016.00
2019-03-09T08:51:15.910Z,13004.00
2019-03-09T08:52:15.833Z,20704.00
2019-03-09T08:53:15.938Z,14384.00
2019-03-09T08:54:15.840Z,17760.00
2019-03-09T08:55:17.845Z,20768.00
2019-03-09T08:56:15.790Z,21536.00
2019-03-09T08:57:17.798Z,14648.00
2019-03-09T08:58:15.767Z,19712.00
2019-03-09T08:59:15.791Z,18944.00
2019-03-09T09:00:15.747Z,17600.00
2019-03-09T09:01:15.785Z,17568.00
2019-03-09T09:02:15.725Z,18272.00
2019-03-09T09:03:15.799Z,20128.00
2019-03-09T09:04:15.732Z,17984.00
2019-03-09T09:05:15.801Z,18528.00
2019-03-09T09:06:15.679Z,16832.00
2019-03-09T09:07:15.713Z,9044.00
2019-03-09T09:08:15.661Z,6764.00
2019-03-09T09:09:15.765Z,7504.00
2019-03-09T09:10:15.637Z,6364.00
2019-03-09T09:11:15.637Z,4096.00
2019-03-09T09:12:15.612Z,3884.00
2019-03-09T09:13:15.650Z,4428.00
2019-03-09T09:14:15.605Z,5464.00
2019-03-09T09:15:15.665Z,5240.00
2019-03-09T09:16:15.569Z,4784.00
2019-03-09T09:17:15.575Z,5008.00
2019-03-09T09:18:15.548Z,6728.00
2019-03-09T09:19:15.622Z,9160.00
2019-03-09T09:20:15.532Z,11208.00
2019-03-09T09:21:15.602Z,15016.00
2019-03-09T09:22:15.539Z,25280.00
2019-03-09T09:23:15.514Z,30144.00
2019-03-09T09:24:15.494Z,23328.00
2019-03-09T09:25:15.532Z,16672.00
2019-03-09T09:26:15.471Z,18976.00
2019-03-09T09:27:15.542Z,20064.00
2019-03-09T09:28:15.437Z,23136.00
2019-03-09T09:29:15.492Z,17568.00
2019-03-09T09:30:15.416Z,17536.00
2019-03-09T09:31:15.466Z,20864.00
2019-03-09T09:32:15.395Z,28416.00
2019-03-09T09:33:15.482Z,26816.00
2019-03-09T09:34:15.388Z,34208.00
2019-03-09T09:35:15.393Z,28224.00
2019-03-09T09:36:15.354Z,33440.00
2019-03-09T09:37:15.412Z,35456.00
2019-03-09T09:38:15.330Z,16512.00
2019-03-09T09:39:18.833Z,16704.00
2019-03-09T09:40:15.308Z,14204.00
2019-03-09T09:41:22.294Z,10320.00
2019-03-09T09:42:15.285Z,10924.00
2019-03-09T09:43:16.368Z,13300.00
2019-03-09T09:44:15.286Z,16928.00
2019-03-09T09:45:16.292Z,13796.00
2019-03-09T09:46:15.246Z,12964.00
2019-03-09T09:47:15.274Z,12332.00
2019-03-09T09:48:15.220Z,13716.00
2019-03-09T09:49:15.320Z,11304.00
2019-03-09T09:50:15.199Z,12896.00
2019-03-09T09:51:15.296Z,10920.00
2019-03-09T09:52:15.175Z,11004.00
2019-03-09T09:53:15.209Z,8328.00
2019-03-09T09:54:15.170Z,9420.00
2019-03-09T09:55:15.226Z,15476.00
2019-03-09T09:56:15.136Z,17312.00
2019-03-09T09:57:15.132Z,42624.00
2019-03-09T09:58:15.109Z,21856.00
2019-03-09T09:59:15.183Z,7980.00
2019-03-09T10:00:15.092Z,5924.00
2019-03-09T10:01:15.159Z,6820.00
2019-03-09T10:02:15.069Z,9120.00
2019-03-09T10:03:15.075Z,14912.00
2019-03-09T10:04:15.057Z,17088.00
2019-03-09T10:05:15.137Z,15904.00
2019-03-09T10:06:15.053Z,44896.00
2019-03-09T10:07:15.100Z,11824.00
2019-03-09T10:08:15.060Z,45888.00
2019-03-09T10:09:15.011Z,15580.00
2019-03-09T10:10:14.996Z,15872.00
2019-03-09T10:11:15.027Z,8500.00
2019-03-09T10:12:14.963Z,9392.00
2019-03-09T10:13:15.039Z,8952.00
2019-03-09T10:14:14.932Z,8536.00
2019-03-09T10:15:15.010Z,11100.00
2019-03-09T10:16:14.910Z,18336.00
2019-03-09T10:17:14.965Z,13808.00
2019-03-09T10:18:14.896Z,9936.00
2019-03-09T10:19:14.977Z,10620.00
2019-03-09T10:20:14.888Z,10444.00
2019-03-09T10:21:14.895Z,11472.00
2019-03-09T10:22:14.856Z,14892.00
2019-03-09T10:23:14.905Z,18144.00
2019-03-09T10:24:14.836Z,21280.00
2019-03-09T10:25:18.352Z,29824.00
2019-03-09T10:26:14.802Z,59456.00
2019-03-09T10:27:16.885Z,61536.00
2019-03-09T10:28:14.785Z,59232.00
2019-03-09T10:29:16.788Z,14100.00
2019-03-09T10:30:14.774Z,19072.00
2019-03-09T10:31:15.776Z,69248.00
2019-03-09T10:32:14.731Z,17600.00
2019-03-09T10:33:14.772Z,79040.00
2019-03-09T10:34:14.718Z,78560.00
2019-03-09T10:35:14.811Z,72576.00
2019-03-09T10:36:14.688Z,17504.00
2019-03-09T10:37:14.691Z,15152.00
2019-03-09T10:38:14.666Z,20640.00
2019-03-09T10:39:14.709Z,14804.00
2019-03-09T10:40:14.662Z,19616.00
2019-03-09T10:41:14.721Z,33184.00
2019-03-09T10:42:14.632Z,36384.00
2019-03-09T10:43:14.629Z,49056.00
2019-03-09T10:44:14.599Z,17664.00
2019-03-09T10:45:14.654Z,14628.00
2019-03-09T10:46:14.607Z,19840.00
2019-03-09T10:47:14.688Z,16992.00
2019-03-09T10:48:14.554Z,24128.00
2019-03-09T10:49:14.568Z,19232.00
2019-03-09T10:50:14.533Z,23616.00
2019-03-09T10:51:14.616Z,48576.00
2019-03-09T10:52:14.530Z,81632.00
2019-03-09T10:53:14.601Z,78432.00
2019-03-09T10:54:14.490Z,32416.00
2019-03-09T10:55:14.507Z,24928.00
2019-03-09T10:56:14.481Z,18656.00
2019-03-09T10:57:14.525Z,20672.00
2019-03-09T10:58:14.452Z,23776.00
2019-03-09T10:59:14.544Z,24224.00
2019-03-09T11:00:14.480Z,39008.00
2019-03-09T11:01:15.499Z,18496.00
2019-03-09T11:02:14.439Z,18784.00
2019-03-09T11:03:14.461Z,54016.00
2019-03-09T11:04:14.390Z,25408.00
2019-03-09T11:05:14.520Z,21760.00
2019-03-09T11:06:14.374Z,20512.00
2019-03-09T11:07:14.386Z,22304.00
2019-03-09T11:08:14.466Z,21120.00
2019-03-09T11:09:15.454Z,20128.00
2019-03-09T11:10:14.313Z,76128.00
2019-03-09T11:11:14.367Z,94688.00
2019-03-09T11:12:14.293Z,93248.00
2019-03-09T11:13:22.309Z,29536.00
2019-03-09T11:14:14.288Z,24736.00
2019-03-09T11:15:14.343Z,79616.00
2019-03-09T11:16:14.270Z,87936.00
2019-03-09T11:17:14.353Z,32032.00
2019-03-09T11:18:14.267Z,76640.00
2019-03-09T11:19:14.263Z,81312.00
2019-03-09T11:20:14.216Z,92064.00
2019-03-09T11:21:14.304Z,81696.00
2019-03-09T11:22:14.180Z,95040.00
2019-03-09T11:23:14.188Z,97280.00
2019-03-09T11:24:14.160Z,96288.00
2019-03-09T11:25:14.218Z,93760.00
2019-03-09T11:26:14.221Z,94080.00
2019-03-09T11:27:14.227Z,94048.00
2019-03-09T11:28:14.117Z,34592.00
2019-03-09T11:29:14.125Z,83360.00
2019-03-09T11:30:14.095Z,87424.00
2019-03-09T11:31:14.172Z,31520.00
2019-03-09T11:32:14.092Z,14308.00
2019-03-09T11:33:14.153Z,16352.00
2019-03-09T11:34:14.054Z,76672.00
2019-03-09T11:35:14.076Z,92032.00
2019-03-09T11:36:14.055Z,44896.00
2019-03-09T11:37:14.081Z,23552.00
2019-03-09T11:38:14.030Z,18848.00
2019-03-09T11:39:14.094Z,20992.00
2019-03-09T11:40:13.986Z,70784.00
2019-03-09T11:41:18.950Z,13400.00
2019-03-09T11:42:14.961Z,11360.00
2019-03-09T11:43:14.019Z,12180.00
2019-03-09T11:44:13.951Z,19584.00
2019-03-09T11:45:14.029Z,51552.00
2019-03-09T11:46:13.937Z,89728.00
2019-03-09T11:47:13.945Z,15032.00
2019-03-09T11:48:13.900Z,23776.00
2019-03-09T11:49:13.956Z,42144.00
2019-03-09T11:50:13.901Z,48064.00
2019-03-09T11:51:13.997Z,35616.00
2019-03-09T11:52:19.846Z,58272.00
2019-03-09T11:53:14.903Z,21760.00
2019-03-09T11:54:13.835Z,15388.00
2019-03-09T11:55:22.802Z,56640.00
2019-03-09T11:56:13.823Z,14384.00
2019-03-09T11:57:13.834Z,10336.00
2019-03-09T11:58:13.786Z,13944.00
2019-03-09T11:59:13.831Z,37760.00
2019-03-09T12:00:13.766Z,23456.00
2019-03-09T12:01:20.387Z,12792.00
2019-03-09T12:02:13.762Z,13536.00
2019-03-09T12:03:13.744Z,14672.00
2019-03-09T12:04:13.724Z,15668.00
2019-03-09T12:05:13.759Z,12364.00
2019-03-09T12:06:13.704Z,8844.00
2019-03-09T12:07:13.805Z,11168.00
2019-03-09T12:08:13.693Z,13796.00
2019-03-09T12:09:13.682Z,11092.00
2019-03-09T12:10:13.658Z,9648.00
2019-03-09T12:11:13.697Z,9384.00
2019-03-09T12:12:13.651Z,9260.00
2019-03-09T12:13:13.712Z,12724.00
2019-03-09T12:14:13.612Z,22368.00
2019-03-09T12:15:13.622Z,21472.00
2019-03-09T12:16:13.599Z,48096.00
2019-03-09T12:17:13.669Z,19936.00
2019-03-09T12:18:13.594Z,21920.00
2019-03-09T12:19:13.648Z,17856.00
2019-03-09T12:20:13.551Z,16768.00
2019-03-09T12:21:13.561Z,16864.00
2019-03-09T12:22:13.545Z,22112.00
2019-03-09T12:23:13.573Z,40128.00
2019-03-09T12:24:18.777Z,18528.00
2019-03-09T12:25:14.508Z,20000.00
2019-03-09T12:26:13.484Z,14476.00
2019-03-09T12:27:13.534Z,9628.00
2019-03-09T12:28:13.464Z,7640.00
2019-03-09T12:29:13.517Z,7232.00
2019-03-09T12:30:13.443Z,6724.00
2019-03-09T12:31:13.526Z,6480.00